sensor_id;sensor_type;location;lat;lon;timestamp;P1;durP1;ratioP1;P2;durP2;ratioP2
47335;SDS011;33068;51.990;5.926;2023-07-13T00:02:21;9.68;;;1.65;;
47335;SDS011;33068;51.990;5.926;2023-07-13T00:04:48;8.38;;;1.92;;
47335;SDS011;33068;51.990;5.926;2023-07-13T00:07:15;6.97;;;1.48;;
47335;SDS011;33068;51.990;5.926;2023-07-13T00:09:45;4.65;;;1.38;;
47335;SDS011;33068;51.990;5.926;2023-07-13T00:12:22;6.40;;;1.33;;
47335;SDS011;33068;51.990;5.926;2023-07-13T00:14:53;8.52;;;1.40;;
47335;SDS011;33068;51.990;5.926;2023-07-13T00:17:20;9.32;;;2.08;;
47335;SDS011;33068;51.990;5.926;2023-07-13T00:19:47;5.90;;;1.58;;
47335;SDS011;33068;51.990;5.926;2023-07-13T00:22:14;9.25;;;1.90;;
47335;SDS011;33068;51.990;5.926;2023-07-13T00:24:43;7.55;;;1.75;;
47335;SDS011;33068;51.990;5.926;2023-07-13T00:27:10;10.02;;;2.17;;
47335;SDS011;33068;51.990;5.926;2023-07-13T00:29:38;7.45;;;1.90;;
47335;SDS011;33068;51.990;5.926;2023-07-13T00:32:08;11.57;;;1.40;;
47335;SDS011;33068;51.990;5.926;2023-07-13T00:34:36;7.60;;;1.25;;
47335;SDS011;33068;51.990;5.926;2023-07-13T00:37:04;6.00;;;1.38;;
47335;SDS011;33068;51.990;5.926;2023-07-13T00:39:34;9.70;;;1.70;;
47335;SDS011;33068;51.990;5.926;2023-07-13T00:42:02;3.78;;;1.10;;
47335;SDS011;33068;51.990;5.926;2023-07-13T00:44:30;7.55;;;1.45;;
47335;SDS011;33068;51.990;5.926;2023-07-13T00:46:57;7.38;;;1.40;;
47335;SDS011;33068;51.990;5.926;2023-07-13T00:49:27;9.63;;;1.50;;
47335;SDS011;33068;51.990;5.926;2023-07-13T00:51:58;6.38;;;1.83;;
47335;SDS011;33068;51.990;5.926;2023-07-13T00:54:29;10.90;;;1.83;;
47335;SDS011;33068;51.990;5.926;2023-07-13T00:57:00;6.88;;;1.10;;
47335;SDS011;33068;51.990;5.926;2023-07-13T00:59:30;6.35;;;1.10;;
47335;SDS011;33068;51.990;5.926;2023-07-13T01:01:59;4.50;;;1.88;;
47335;SDS011;33068;51.990;5.926;2023-07-13T01:04:28;5.85;;;1.27;;
47335;SDS011;33068;51.990;5.926;2023-07-13T01:06:55;4.10;;;1.42;;
47335;SDS011;33068;51.990;5.926;2023-07-13T01:09:25;7.07;;;1.40;;
47335;SDS011;33068;51.990;5.926;2023-07-13T01:11:53;5.35;;;1.63;;
47335;SDS011;33068;51.990;5.926;2023-07-13T01:14:20;7.18;;;1.45;;
47335;SDS011;33068;51.990;5.926;2023-07-13T01:16:47;7.15;;;1.30;;
47335;SDS011;33068;51.990;5.926;2023-07-13T01:19:19;5.35;;;1.10;;
47335;SDS011;33068;51.990;5.926;2023-07-13T01:22:03;6.68;;;2.20;;
47335;SDS011;33068;51.990;5.926;2023-07-13T01:24:34;6.93;;;1.52;;
47335;SDS011;33068;51.990;5.926;2023-07-13T01:27:02;8.23;;;1.48;;
47335;SDS011;33068;51.990;5.926;2023-07-13T01:29:31;6.85;;;1.27;;
47335;SDS011;33068;51.990;5.926;2023-07-13T01:34:35;6.78;;;1.38;;
47335;SDS011;33068;51.990;5.926;2023-07-13T01:37:05;5.78;;;1.90;;
47335;SDS011;33068;51.990;5.926;2023-07-13T01:39:32;9.32;;;1.52;;
47335;SDS011;33068;51.990;5.926;2023-07-13T01:41:59;7.22;;;1.60;;
47335;SDS011;33068;51.990;5.926;2023-07-13T01:44:27;4.10;;;1.50;;
47335;SDS011;33068;51.990;5.926;2023-07-13T01:46:54;4.43;;;1.27;;
47335;SDS011;33068;51.990;5.926;2023-07-13T01:49:21;7.07;;;1.58;;
47335;SDS011;33068;51.990;5.926;2023-07-13T01:51:48;6.40;;;1.40;;
47335;SDS011;33068;51.990;5.926;2023-07-13T01:54:17;7.80;;;1.20;;
47335;SDS011;33068;51.990;5.926;2023-07-13T01:56:44;4.70;;;1.75;;
47335;SDS011;33068;51.990;5.926;2023-07-13T01:59:11;9.80;;;1.80;;
47335;SDS011;33068;51.990;5.926;2023-07-13T02:01:38;7.28;;;1.67;;
47335;SDS011;33068;51.990;5.926;2023-07-13T02:04:05;4.68;;;1.55;;
47335;SDS011;33068;51.990;5.926;2023-07-13T02:06:32;3.90;;;1.52;;
47335;SDS011;33068;51.990;5.926;2023-07-13T02:09:00;12.45;;;2.30;;
47335;SDS011;33068;51.990;5.926;2023-07-13T02:11:28;8.68;;;2.10;;
47335;SDS011;33068;51.990;5.926;2023-07-13T02:13:58;6.00;;;1.98;;
47335;SDS011;33068;51.990;5.926;2023-07-13T02:16:26;8.80;;;2.30;;
47335;SDS011;33068;51.990;5.926;2023-07-13T02:18:53;9.00;;;1.95;;
47335;SDS011;33068;51.990;5.926;2023-07-13T02:21:21;6.93;;;2.00;;
47335;SDS011;33068;51.990;5.926;2023-07-13T02:23:50;7.22;;;1.77;;
47335;SDS011;33068;51.990;5.926;2023-07-13T02:26:18;8.27;;;2.15;;
47335;SDS011;33068;51.990;5.926;2023-07-13T02:28:48;4.47;;;2.20;;
47335;SDS011;33068;51.990;5.926;2023-07-13T02:31:15;6.70;;;2.30;;
47335;SDS011;33068;51.990;5.926;2023-07-13T02:33:44;16.08;;;2.03;;
47335;SDS011;33068;51.990;5.926;2023-07-13T02:36:11;11.18;;;2.28;;
47335;SDS011;33068;51.990;5.926;2023-07-13T02:38:39;9.30;;;2.40;;
47335;SDS011;33068;51.990;5.926;2023-07-13T02:41:06;8.07;;;2.47;;
47335;SDS011;33068;51.990;5.926;2023-07-13T02:43:34;8.95;;;2.92;;
47335;SDS011;33068;51.990;5.926;2023-07-13T02:46:03;10.07;;;2.97;;
47335;SDS011;33068;51.990;5.926;2023-07-13T02:48:34;8.43;;;3.10;;
47335;SDS011;33068;51.990;5.926;2023-07-13T02:51:02;7.18;;;2.72;;
47335;SDS011;33068;51.990;5.926;2023-07-13T02:53:29;11.73;;;3.08;;
47335;SDS011;33068;51.990;5.926;2023-07-13T02:55:57;11.75;;;2.40;;
47335;SDS011;33068;51.990;5.926;2023-07-13T02:58:24;9.18;;;2.30;;
47335;SDS011;33068;51.990;5.926;2023-07-13T03:00:52;11.43;;;2.63;;
47335;SDS011;33068;51.990;5.926;2023-07-13T03:03:20;11.68;;;2.70;;
47335;SDS011;33068;51.990;5.926;2023-07-13T03:05:47;4.93;;;2.60;;
47335;SDS011;33068;51.990;5.926;2023-07-13T03:08:16;12.30;;;4.25;;
47335;SDS011;33068;51.990;5.926;2023-07-13T03:10:45;7.80;;;2.50;;
47335;SDS011;33068;51.990;5.926;2023-07-13T03:13:12;10.80;;;3.35;;
47335;SDS011;33068;51.990;5.926;2023-07-13T03:15:39;8.18;;;2.70;;
47335;SDS011;33068;51.990;5.926;2023-07-13T03:18:06;11.80;;;3.90;;
47335;SDS011;33068;51.990;5.926;2023-07-13T03:20:35;9.77;;;2.80;;
47335;SDS011;33068;51.990;5.926;2023-07-13T03:23:02;10.35;;;3.17;;
47335;SDS011;33068;51.990;5.926;2023-07-13T03:25:30;6.00;;;3.53;;
47335;SDS011;33068;51.990;5.926;2023-07-13T03:27:59;13.93;;;4.55;;
47335;SDS011;33068;51.990;5.926;2023-07-13T03:30:26;6.68;;;2.70;;
47335;SDS011;33068;51.990;5.926;2023-07-13T03:32:54;12.63;;;2.90;;
47335;SDS011;33068;51.990;5.926;2023-07-13T03:35:22;14.90;;;3.30;;
47335;SDS011;33068;51.990;5.926;2023-07-13T03:37:50;10.82;;;3.63;;
47335;SDS011;33068;51.990;5.926;2023-07-13T03:40:19;9.38;;;3.47;;
47335;SDS011;33068;51.990;5.926;2023-07-13T03:42:46;8.98;;;3.03;;
47335;SDS011;33068;51.990;5.926;2023-07-13T03:45:16;10.13;;;3.22;;
47335;SDS011;33068;51.990;5.926;2023-07-13T03:47:43;18.42;;;4.15;;
47335;SDS011;33068;51.990;5.926;2023-07-13T03:50:11;11.98;;;3.92;;
47335;SDS011;33068;51.990;5.926;2023-07-13T03:52:38;9.20;;;3.60;;
47335;SDS011;33068;51.990;5.926;2023-07-13T03:55:07;15.85;;;3.83;;
47335;SDS011;33068;51.990;5.926;2023-07-13T03:57:35;10.25;;;3.58;;
47335;SDS011;33068;51.990;5.926;2023-07-13T04:00:03;14.07;;;3.85;;
47335;SDS011;33068;51.990;5.926;2023-07-13T04:02:41;11.15;;;3.85;;
47335;SDS011;33068;51.990;5.926;2023-07-13T04:05:08;11.80;;;4.65;;
47335;SDS011;33068;51.990;5.926;2023-07-13T04:07:35;8.43;;;3.30;;
47335;SDS011;33068;51.990;5.926;2023-07-13T04:10:03;16.23;;;4.35;;
47335;SDS011;33068;51.990;5.926;2023-07-13T04:12:31;11.82;;;3.80;;
47335;SDS011;33068;51.990;5.926;2023-07-13T04:14:59;10.40;;;4.40;;
47335;SDS011;33068;51.990;5.926;2023-07-13T04:17:26;15.38;;;4.13;;
47335;SDS011;33068;51.990;5.926;2023-07-13T04:19:53;15.63;;;5.10;;
47335;SDS011;33068;51.990;5.926;2023-07-13T04:22:20;11.50;;;4.43;;
47335;SDS011;33068;51.990;5.926;2023-07-13T04:24:47;11.88;;;4.20;;
47335;SDS011;33068;51.990;5.926;2023-07-13T04:27:14;14.68;;;4.65;;
47335;SDS011;33068;51.990;5.926;2023-07-13T04:29:43;18.60;;;4.80;;
47335;SDS011;33068;51.990;5.926;2023-07-13T04:32:13;17.15;;;5.90;;
47335;SDS011;33068;51.990;5.926;2023-07-13T04:34:40;17.13;;;5.32;;
47335;SDS011;33068;51.990;5.926;2023-07-13T04:37:07;16.25;;;4.93;;
47335;SDS011;33068;51.990;5.926;2023-07-13T04:39:34;11.60;;;4.72;;
47335;SDS011;33068;51.990;5.926;2023-07-13T04:42:02;17.98;;;4.78;;
47335;SDS011;33068;51.990;5.926;2023-07-13T04:44:30;10.65;;;5.25;;
47335;SDS011;33068;51.990;5.926;2023-07-13T04:46:58;12.88;;;4.45;;
47335;SDS011;33068;51.990;5.926;2023-07-13T04:49:25;13.30;;;4.80;;
47335;SDS011;33068;51.990;5.926;2023-07-13T04:51:52;10.05;;;4.68;;
47335;SDS011;33068;51.990;5.926;2023-07-13T04:54:20;14.27;;;4.50;;
47335;SDS011;33068;51.990;5.926;2023-07-13T04:56:47;18.73;;;4.78;;
47335;SDS011;33068;51.990;5.926;2023-07-13T04:59:14;14.05;;;4.65;;
47335;SDS011;33068;51.990;5.926;2023-07-13T05:01:42;11.57;;;4.47;;
47335;SDS011;33068;51.990;5.926;2023-07-13T05:04:10;20.33;;;4.78;;
47335;SDS011;33068;51.990;5.926;2023-07-13T05:06:37;14.95;;;6.60;;
47335;SDS011;33068;51.990;5.926;2023-07-13T05:09:05;17.77;;;5.20;;
47335;SDS011;33068;51.990;5.926;2023-07-13T05:11:32;15.02;;;4.75;;
47335;SDS011;33068;51.990;5.926;2023-07-13T05:13:59;18.38;;;5.07;;
47335;SDS011;33068;51.990;5.926;2023-07-13T05:16:27;17.92;;;5.00;;
47335;SDS011;33068;51.990;5.926;2023-07-13T05:18:54;15.77;;;5.10;;
47335;SDS011;33068;51.990;5.926;2023-07-13T05:21:23;15.65;;;5.30;;
47335;SDS011;33068;51.990;5.926;2023-07-13T05:23:50;18.70;;;5.22;;
47335;SDS011;33068;51.990;5.926;2023-07-13T05:26:17;15.73;;;5.22;;
47335;SDS011;33068;51.990;5.926;2023-07-13T05:28:46;22.13;;;5.00;;
47335;SDS011;33068;51.990;5.926;2023-07-13T05:31:13;15.75;;;6.43;;
47335;SDS011;33068;51.990;5.926;2023-07-13T05:33:40;18.02;;;6.35;;
47335;SDS011;33068;51.990;5.926;2023-07-13T05:36:08;17.05;;;5.80;;
47335;SDS011;33068;51.990;5.926;2023-07-13T05:38:38;17.60;;;5.90;;
47335;SDS011;33068;51.990;5.926;2023-07-13T05:41:06;17.98;;;6.88;;
47335;SDS011;33068;51.990;5.926;2023-07-13T05:43:33;15.13;;;5.70;;
47335;SDS011;33068;51.990;5.926;2023-07-13T05:46:00;19.77;;;6.38;;
47335;SDS011;33068;51.990;5.926;2023-07-13T05:48:27;22.05;;;6.57;;
47335;SDS011;33068;51.990;5.926;2023-07-13T05:50:54;19.65;;;7.95;;
47335;SDS011;33068;51.990;5.926;2023-07-13T05:53:21;22.35;;;7.43;;
47335;SDS011;33068;51.990;5.926;2023-07-13T05:55:49;16.60;;;6.75;;
47335;SDS011;33068;51.990;5.926;2023-07-13T05:58:18;20.50;;;6.63;;
47335;SDS011;33068;51.990;5.926;2023-07-13T06:00:45;19.95;;;7.80;;
47335;SDS011;33068;51.990;5.926;2023-07-13T06:03:13;23.55;;;8.50;;
47335;SDS011;33068;51.990;5.926;2023-07-13T06:05:42;20.90;;;8.50;;
47335;SDS011;33068;51.990;5.926;2023-07-13T06:08:09;21.70;;;8.55;;
47335;SDS011;33068;51.990;5.926;2023-07-13T06:10:36;23.08;;;9.38;;
47335;SDS011;33068;51.990;5.926;2023-07-13T06:13:05;25.77;;;9.95;;
47335;SDS011;33068;51.990;5.926;2023-07-13T06:15:32;22.80;;;8.25;;
47335;SDS011;33068;51.990;5.926;2023-07-13T06:17:59;20.65;;;9.85;;
47335;SDS011;33068;51.990;5.926;2023-07-13T06:20:26;76.38;;;15.23;;
47335;SDS011;33068;51.990;5.926;2023-07-13T06:22:54;42.33;;;11.93;;
47335;SDS011;33068;51.990;5.926;2023-07-13T06:25:21;28.58;;;11.68;;
47335;SDS011;33068;51.990;5.926;2023-07-13T06:27:48;26.90;;;11.57;;
47335;SDS011;33068;51.990;5.926;2023-07-13T06:30:16;28.85;;;12.38;;
47335;SDS011;33068;51.990;5.926;2023-07-13T06:32:44;30.17;;;12.65;;
47335;SDS011;33068;51.990;5.926;2023-07-13T06:35:11;24.25;;;11.25;;
47335;SDS011;33068;51.990;5.926;2023-07-13T06:37:38;26.73;;;11.88;;
47335;SDS011;33068;51.990;5.926;2023-07-13T06:40:06;22.30;;;11.10;;
47335;SDS011;33068;51.990;5.926;2023-07-13T06:42:34;21.00;;;10.75;;
47335;SDS011;33068;51.990;5.926;2023-07-13T06:45:04;27.73;;;12.02;;
47335;SDS011;33068;51.990;5.926;2023-07-13T06:47:33;27.63;;;12.52;;
47335;SDS011;33068;51.990;5.926;2023-07-13T06:50:00;23.50;;;12.02;;
47335;SDS011;33068;51.990;5.926;2023-07-13T06:52:27;29.10;;;12.27;;
47335;SDS011;33068;51.990;5.926;2023-07-13T06:54:55;25.95;;;12.32;;
47335;SDS011;33068;51.990;5.926;2023-07-13T06:57:22;28.40;;;11.98;;
47335;SDS011;33068;51.990;5.926;2023-07-13T06:59:49;28.42;;;11.73;;
47335;SDS011;33068;51.990;5.926;2023-07-13T07:02:16;21.75;;;11.00;;
47335;SDS011;33068;51.990;5.926;2023-07-13T07:04:45;23.83;;;12.57;;
47335;SDS011;33068;51.990;5.926;2023-07-13T07:07:12;29.98;;;11.88;;
47335;SDS011;33068;51.990;5.926;2023-07-13T07:09:39;27.17;;;12.48;;
47335;SDS011;33068;51.990;5.926;2023-07-13T07:12:06;27.45;;;13.23;;
47335;SDS011;33068;51.990;5.926;2023-07-13T07:14:34;28.20;;;13.32;;
47335;SDS011;33068;51.990;5.926;2023-07-13T07:17:01;23.95;;;12.18;;
47335;SDS011;33068;51.990;5.926;2023-07-13T07:19:29;27.95;;;12.00;;
47335;SDS011;33068;51.990;5.926;2023-07-13T07:21:58;21.55;;;11.48;;
47335;SDS011;33068;51.990;5.926;2023-07-13T07:24:25;22.23;;;12.45;;
47335;SDS011;33068;51.990;5.926;2023-07-13T07:26:52;27.63;;;12.68;;
47335;SDS011;33068;51.990;5.926;2023-07-13T07:29:21;23.40;;;12.25;;
47335;SDS011;33068;51.990;5.926;2023-07-13T07:31:51;24.65;;;11.38;;
47335;SDS011;33068;51.990;5.926;2023-07-13T07:34:19;25.63;;;12.00;;
47335;SDS011;33068;51.990;5.926;2023-07-13T07:36:47;19.77;;;11.68;;
47335;SDS011;33068;51.990;5.926;2023-07-13T07:39:15;25.42;;;12.27;;
47335;SDS011;33068;51.990;5.926;2023-07-13T07:41:42;23.83;;;11.70;;
47335;SDS011;33068;51.990;5.926;2023-07-13T07:44:09;26.40;;;12.73;;
47335;SDS011;33068;51.990;5.926;2023-07-13T07:46:36;29.40;;;12.68;;
47335;SDS011;33068;51.990;5.926;2023-07-13T07:49:06;22.75;;;11.23;;
47335;SDS011;33068;51.990;5.926;2023-07-13T07:51:34;26.17;;;11.73;;
47335;SDS011;33068;51.990;5.926;2023-07-13T07:54:01;27.77;;;12.43;;
47335;SDS011;33068;51.990;5.926;2023-07-13T07:56:30;23.20;;;10.82;;
47335;SDS011;33068;51.990;5.926;2023-07-13T07:58:58;25.40;;;12.57;;
47335;SDS011;33068;51.990;5.926;2023-07-13T08:01:25;24.88;;;11.50;;
47335;SDS011;33068;51.990;5.926;2023-07-13T08:04:00;25.65;;;10.95;;
47335;SDS011;33068;51.990;5.926;2023-07-13T08:06:31;20.60;;;11.35;;
47335;SDS011;33068;51.990;5.926;2023-07-13T08:08:58;30.25;;;12.40;;
47335;SDS011;33068;51.990;5.926;2023-07-13T08:11:26;15.77;;;9.50;;
47335;SDS011;33068;51.990;5.926;2023-07-13T08:13:55;20.77;;;9.25;;
47335;SDS011;33068;51.990;5.926;2023-07-13T08:16:22;21.58;;;9.93;;
47335;SDS011;33068;51.990;5.926;2023-07-13T08:18:49;13.52;;;8.10;;
47335;SDS011;33068;51.990;5.926;2023-07-13T08:21:17;22.60;;;9.93;;
47335;SDS011;33068;51.990;5.926;2023-07-13T08:23:45;18.30;;;10.00;;
47335;SDS011;33068;51.990;5.926;2023-07-13T08:26:12;20.92;;;10.05;;
47335;SDS011;33068;51.990;5.926;2023-07-13T08:28:39;16.65;;;8.40;;
47335;SDS011;33068;51.990;5.926;2023-07-13T08:31:08;18.17;;;8.63;;
47335;SDS011;33068;51.990;5.926;2023-07-13T08:33:36;22.33;;;8.52;;
47335;SDS011;33068;51.990;5.926;2023-07-13T08:36:06;22.23;;;8.73;;
47335;SDS011;33068;51.990;5.926;2023-07-13T08:38:33;18.52;;;9.60;;
47335;SDS011;33068;51.990;5.926;2023-07-13T08:41:02;14.50;;;6.88;;
47335;SDS011;33068;51.990;5.926;2023-07-13T08:43:37;14.00;;;6.95;;
47335;SDS011;33068;51.990;5.926;2023-07-13T08:46:06;16.33;;;8.75;;
47335;SDS011;33068;51.990;5.926;2023-07-13T08:48:40;25.15;;;9.40;;
47335;SDS011;33068;51.990;5.926;2023-07-13T08:51:14;17.67;;;7.65;;
47335;SDS011;33068;51.990;5.926;2023-07-13T08:53:58;11.90;;;6.97;;
47335;SDS011;33068;51.990;5.926;2023-07-13T08:56:28;19.58;;;8.48;;
47335;SDS011;33068;51.990;5.926;2023-07-13T08:58:58;23.73;;;9.23;;
47335;SDS011;33068;51.990;5.926;2023-07-13T09:01:33;19.20;;;9.48;;
47335;SDS011;33068;51.990;5.926;2023-07-13T09:04:14;16.88;;;8.52;;
47335;SDS011;33068;51.990;5.926;2023-07-13T09:06:49;14.07;;;7.95;;
47335;SDS011;33068;51.990;5.926;2023-07-13T09:09:24;16.42;;;7.18;;
47335;SDS011;33068;51.990;5.926;2023-07-13T09:12:01;16.48;;;6.72;;
47335;SDS011;33068;51.990;5.926;2023-07-13T09:14:42;12.90;;;5.25;;
47335;SDS011;33068;51.990;5.926;2023-07-13T09:17:14;11.52;;;5.68;;
47335;SDS011;33068;51.990;5.926;2023-07-13T09:19:45;13.68;;;6.35;;
47335;SDS011;33068;51.990;5.926;2023-07-13T09:22:19;12.73;;;5.00;;
47335;SDS011;33068;51.990;5.926;2023-07-13T09:24:50;12.88;;;6.72;;
47335;SDS011;33068;51.990;5.926;2023-07-13T09:27:23;7.82;;;5.03;;
47335;SDS011;33068;51.990;5.926;2023-07-13T09:29:57;13.20;;;4.97;;
47335;SDS011;33068;51.990;5.926;2023-07-13T09:32:38;9.40;;;4.82;;
47335;SDS011;33068;51.990;5.926;2023-07-13T09:35:09;10.80;;;5.03;;
47335;SDS011;33068;51.990;5.926;2023-07-13T09:37:38;11.25;;;5.13;;
47335;SDS011;33068;51.990;5.926;2023-07-13T09:40:08;15.25;;;6.90;;
47335;SDS011;33068;51.990;5.926;2023-07-13T09:42:40;12.77;;;5.57;;
47335;SDS011;33068;51.990;5.926;2023-07-13T09:45:09;8.73;;;5.68;;
47335;SDS011;33068;51.990;5.926;2023-07-13T09:47:39;8.43;;;3.85;;
47335;SDS011;33068;51.990;5.926;2023-07-13T09:50:09;6.53;;;3.17;;
47335;SDS011;33068;51.990;5.926;2023-07-13T09:52:42;5.57;;;2.38;;
47335;SDS011;33068;51.990;5.926;2023-07-13T09:55:24;4.72;;;1.80;;
47335;SDS011;33068;51.990;5.926;2023-07-13T09:57:53;6.82;;;3.35;;
47335;SDS011;33068;51.990;5.926;2023-07-13T10:00:21;7.88;;;3.60;;
47335;SDS011;33068;51.990;5.926;2023-07-13T10:02:59;8.43;;;3.45;;
47335;SDS011;33068;51.990;5.926;2023-07-13T10:05:28;10.57;;;4.65;;
47335;SDS011;33068;51.990;5.926;2023-07-13T10:08:04;9.30;;;4.38;;
47335;SDS011;33068;51.990;5.926;2023-07-13T10:10:32;11.82;;;4.45;;
47335;SDS011;33068;51.990;5.926;2023-07-13T10:13:02;9.25;;;4.30;;
47335;SDS011;33068;51.990;5.926;2023-07-13T10:15:30;8.77;;;4.13;;
47335;SDS011;33068;51.990;5.926;2023-07-13T10:18:00;10.50;;;4.10;;
47335;SDS011;33068;51.990;5.926;2023-07-13T10:20:27;5.82;;;3.85;;
47335;SDS011;33068;51.990;5.926;2023-07-13T10:22:59;10.18;;;3.63;;
47335;SDS011;33068;51.990;5.926;2023-07-13T10:25:30;8.57;;;3.55;;
47335;SDS011;33068;51.990;5.926;2023-07-13T10:28:03;13.20;;;4.13;;
47335;SDS011;33068;51.990;5.926;2023-07-13T10:30:40;13.30;;;3.20;;
47335;SDS011;33068;51.990;5.926;2023-07-13T10:33:13;7.95;;;3.10;;
47335;SDS011;33068;51.990;5.926;2023-07-13T10:35:42;9.10;;;3.25;;
47335;SDS011;33068;51.990;5.926;2023-07-13T10:38:12;10.52;;;3.50;;
47335;SDS011;33068;51.990;5.926;2023-07-13T10:40:41;6.47;;;2.90;;
47335;SDS011;33068;51.990;5.926;2023-07-13T10:43:14;6.70;;;2.42;;
47335;SDS011;33068;51.990;5.926;2023-07-13T10:45:46;8.95;;;3.55;;
47335;SDS011;33068;51.990;5.926;2023-07-13T10:48:16;16.63;;;3.80;;
47335;SDS011;33068;51.990;5.926;2023-07-13T10:50:45;39.30;;;4.88;;
47335;SDS011;33068;51.990;5.926;2023-07-13T10:53:19;21.77;;;5.45;;
47335;SDS011;33068;51.990;5.926;2023-07-13T10:55:55;13.05;;;5.70;;
47335;SDS011;33068;51.990;5.926;2023-07-13T10:58:28;11.80;;;6.15;;
47335;SDS011;33068;51.990;5.926;2023-07-13T11:01:01;13.75;;;5.95;;
47335;SDS011;33068;51.990;5.926;2023-07-13T11:03:35;8.30;;;3.38;;
47335;SDS011;33068;51.990;5.926;2023-07-13T11:06:06;11.25;;;4.13;;
47335;SDS011;33068;51.990;5.926;2023-07-13T11:08:36;9.13;;;3.78;;
47335;SDS011;33068;51.990;5.926;2023-07-13T11:11:31;9.65;;;4.10;;
47335;SDS011;33068;51.990;5.926;2023-07-13T11:14:01;10.10;;;3.20;;
47335;SDS011;33068;51.990;5.926;2023-07-13T11:16:34;14.48;;;4.13;;
47335;SDS011;33068;51.990;5.926;2023-07-13T11:22:15;6.82;;;3.28;;
47335;SDS011;33068;51.990;5.926;2023-07-13T11:24:50;6.03;;;2.50;;
47335;SDS011;33068;51.990;5.926;2023-07-13T11:27:34;5.55;;;2.50;;
47335;SDS011;33068;51.990;5.926;2023-07-13T11:30:07;7.20;;;2.03;;
47335;SDS011;33068;51.990;5.926;2023-07-13T11:32:49;3.65;;;1.27;;
47335;SDS011;33068;51.990;5.926;2023-07-13T11:35:35;2.50;;;1.20;;
47335;SDS011;33068;51.990;5.926;2023-07-13T11:38:09;4.65;;;1.25;;
47335;SDS011;33068;51.990;5.926;2023-07-13T11:40:41;6.88;;;1.80;;
47335;SDS011;33068;51.990;5.926;2023-07-13T11:43:12;3.63;;;0.90;;
47335;SDS011;33068;51.990;5.926;2023-07-13T11:45:40;3.05;;;1.23;;
47335;SDS011;33068;51.990;5.926;2023-07-13T11:48:17;3.47;;;0.85;;
47335;SDS011;33068;51.990;5.926;2023-07-13T11:50:51;5.13;;;1.10;;
47335;SDS011;33068;51.990;5.926;2023-07-13T11:53:25;2.47;;;1.02;;
47335;SDS011;33068;51.990;5.926;2023-07-13T11:55:54;2.38;;;1.00;;
47335;SDS011;33068;51.990;5.926;2023-07-13T11:58:24;2.55;;;1.10;;
47335;SDS011;33068;51.990;5.926;2023-07-13T12:00:53;3.30;;;1.20;;
47335;SDS011;33068;51.990;5.926;2023-07-13T12:03:24;3.20;;;1.25;;
47335;SDS011;33068;51.990;5.926;2023-07-13T12:06:00;4.15;;;1.30;;
47335;SDS011;33068;51.990;5.926;2023-07-13T12:08:30;4.05;;;1.38;;
47335;SDS011;33068;51.990;5.926;2023-07-13T12:11:06;2.60;;;1.05;;
47335;SDS011;33068;51.990;5.926;2023-07-13T12:13:41;4.38;;;1.63;;
47335;SDS011;33068;51.990;5.926;2023-07-13T12:16:11;8.10;;;1.75;;
47335;SDS011;33068;51.990;5.926;2023-07-13T12:18:41;5.07;;;1.67;;
47335;SDS011;33068;51.990;5.926;2023-07-13T12:21:13;4.93;;;1.60;;
47335;SDS011;33068;51.990;5.926;2023-07-13T12:23:43;3.55;;;1.33;;
47335;SDS011;33068;51.990;5.926;2023-07-13T12:26:14;3.53;;;1.35;;
47335;SDS011;33068;51.990;5.926;2023-07-13T12:28:45;6.22;;;1.40;;
47335;SDS011;33068;51.990;5.926;2023-07-13T12:31:24;3.58;;;1.40;;
47335;SDS011;33068;51.990;5.926;2023-07-13T12:33:57;4.72;;;1.45;;
47335;SDS011;33068;51.990;5.926;2023-07-13T12:36:26;3.30;;;1.65;;
47335;SDS011;33068;51.990;5.926;2023-07-13T12:38:59;7.50;;;1.33;;
47335;SDS011;33068;51.990;5.926;2023-07-13T12:41:30;9.18;;;2.33;;
47335;SDS011;33068;51.990;5.926;2023-07-13T12:43:59;2.85;;;1.70;;
47335;SDS011;33068;51.990;5.926;2023-07-13T12:46:26;6.03;;;1.73;;
47335;SDS011;33068;51.990;5.926;2023-07-13T12:48:56;1.90;;;1.23;;
47335;SDS011;33068;51.990;5.926;2023-07-13T12:51:25;3.63;;;1.20;;
47335;SDS011;33068;51.990;5.926;2023-07-13T12:53:56;4.30;;;1.40;;
47335;SDS011;33068;51.990;5.926;2023-07-13T12:56:39;4.72;;;2.15;;
47335;SDS011;33068;51.990;5.926;2023-07-13T12:59:08;3.30;;;1.50;;
47335;SDS011;33068;51.990;5.926;2023-07-13T13:01:43;2.30;;;1.08;;
47335;SDS011;33068;51.990;5.926;2023-07-13T13:04:10;5.00;;;1.50;;
47335;SDS011;33068;51.990;5.926;2023-07-13T13:06:39;3.45;;;1.25;;
47335;SDS011;33068;51.990;5.926;2023-07-13T13:09:09;4.72;;;1.27;;
47335;SDS011;33068;51.990;5.926;2023-07-13T13:11:39;2.10;;;1.27;;
47335;SDS011;33068;51.990;5.926;2023-07-13T13:14:06;4.80;;;1.20;;
47335;SDS011;33068;51.990;5.926;2023-07-13T13:16:35;6.55;;;1.77;;
47335;SDS011;33068;51.990;5.926;2023-07-13T13:19:11;5.13;;;1.55;;
47335;SDS011;33068;51.990;5.926;2023-07-13T13:21:45;6.25;;;1.17;;
47335;SDS011;33068;51.990;5.926;2023-07-13T13:24:13;3.13;;;1.17;;
47335;SDS011;33068;51.990;5.926;2023-07-13T13:26:42;3.28;;;1.25;;
47335;SDS011;33068;51.990;5.926;2023-07-13T13:29:14;4.05;;;1.23;;
47335;SDS011;33068;51.990;5.926;2023-07-13T13:31:42;4.32;;;1.40;;
47335;SDS011;33068;51.990;5.926;2023-07-13T13:34:10;4.38;;;1.65;;
47335;SDS011;33068;51.990;5.926;2023-07-13T13:36:39;3.60;;;1.40;;
47335;SDS011;33068;51.990;5.926;2023-07-13T13:39:15;4.03;;;1.42;;
47335;SDS011;33068;51.990;5.926;2023-07-13T13:41:47;7.15;;;2.17;;
47335;SDS011;33068;51.990;5.926;2023-07-13T13:44:15;6.13;;;1.55;;
47335;SDS011;33068;51.990;5.926;2023-07-13T13:46:43;4.07;;;1.50;;
47335;SDS011;33068;51.990;5.926;2023-07-13T13:49:13;4.28;;;1.70;;
47335;SDS011;33068;51.990;5.926;2023-07-13T13:51:42;3.60;;;1.77;;
47335;SDS011;33068;51.990;5.926;2023-07-13T13:54:15;5.75;;;1.95;;
47335;SDS011;33068;51.990;5.926;2023-07-13T13:56:43;4.20;;;1.38;;
47335;SDS011;33068;51.990;5.926;2023-07-13T13:59:12;3.33;;;1.40;;
47335;SDS011;33068;51.990;5.926;2023-07-13T14:01:40;1.88;;;0.70;;
47335;SDS011;33068;51.990;5.926;2023-07-13T14:04:12;3.60;;;0.90;;
47335;SDS011;33068;51.990;5.926;2023-07-13T14:06:42;4.43;;;0.98;;
47335;SDS011;33068;51.990;5.926;2023-07-13T14:09:12;3.58;;;1.00;;
47335;SDS011;33068;51.990;5.926;2023-07-13T14:11:45;6.38;;;1.27;;
47335;SDS011;33068;51.990;5.926;2023-07-13T14:14:15;4.95;;;1.30;;
47335;SDS011;33068;51.990;5.926;2023-07-13T14:16:44;3.03;;;0.93;;
47335;SDS011;33068;51.990;5.926;2023-07-13T14:19:12;2.58;;;1.30;;
47335;SDS011;33068;51.990;5.926;2023-07-13T14:21:40;3.47;;;1.23;;
47335;SDS011;33068;51.990;5.926;2023-07-13T14:24:07;1.95;;;0.95;;
47335;SDS011;33068;51.990;5.926;2023-07-13T14:26:37;1.88;;;1.20;;
47335;SDS011;33068;51.990;5.926;2023-07-13T14:29:10;3.72;;;0.93;;
47335;SDS011;33068;51.990;5.926;2023-07-13T14:31:40;3.20;;;1.20;;
47335;SDS011;33068;51.990;5.926;2023-07-13T14:34:08;2.25;;;1.25;;
47335;SDS011;33068;51.990;5.926;2023-07-13T14:36:38;3.70;;;0.98;;
47335;SDS011;33068;51.990;5.926;2023-07-13T14:39:11;2.35;;;0.90;;
47335;SDS011;33068;51.990;5.926;2023-07-13T14:41:41;2.20;;;0.82;;
47335;SDS011;33068;51.990;5.926;2023-07-13T14:44:10;5.55;;;1.13;;
47335;SDS011;33068;51.990;5.926;2023-07-13T14:46:39;2.88;;;1.10;;
47335;SDS011;33068;51.990;5.926;2023-07-13T14:49:07;3.05;;;1.30;;
47335;SDS011;33068;51.990;5.926;2023-07-13T14:51:40;2.05;;;1.00;;
47335;SDS011;33068;51.990;5.926;2023-07-13T14:54:08;2.33;;;1.17;;
47335;SDS011;33068;51.990;5.926;2023-07-13T14:56:36;2.72;;;1.15;;
47335;SDS011;33068;51.990;5.926;2023-07-13T14:59:06;1.50;;;0.82;;
47335;SDS011;33068;51.990;5.926;2023-07-13T15:01:33;5.63;;;1.13;;